createdAt,value
2019-04-05T00:01:11.998Z,77.70
2019-04-05T00:03:41.425Z,75.37
2019-04-05T00:06:10.958Z,77.23
2019-04-05T00:08:40.397Z,77.67
2019-04-05T00:11:10.203Z,76.80
2019-04-05T00:13:41.186Z,86.77
2019-04-05T00:16:10.799Z,79.63
2019-04-05T00:18:40.341Z,83.50
2019-04-05T00:21:12.311Z,75.37
2019-04-05T00:23:41.845Z,80.60
2019-04-05T00:26:11.431Z,89.87
2019-04-05T00:28:41.028Z,77.10
2019-04-05T00:31:10.495Z,72.63
2019-04-05T00:33:39.940Z,79.50
2019-04-05T00:36:09.416Z,75.57
2019-04-05T00:38:38.894Z,71.67
2019-04-05T00:41:09.831Z,77.50
2019-04-05T00:43:40.689Z,76.50
2019-04-05T00:46:10.696Z,75.50
2019-04-05T00:48:40.238Z,75.00
2019-04-05T00:51:09.814Z,63.43
2019-04-05T00:53:39.425Z,73.70
2019-04-05T00:56:11.894Z,73.47
2019-04-05T00:58:42.078Z,67.43
2019-04-05T01:01:11.583Z,72.57
2019-04-05T01:03:42.033Z,69.53
2019-04-05T01:06:11.538Z,79.47
2019-04-05T01:08:41.134Z,72.13
2019-04-05T01:11:10.755Z,79.67
2019-04-05T01:13:44.191Z,75.97
2019-04-05T01:16:13.209Z,76.63
2019-04-05T01:18:42.743Z,70.00
2019-04-05T01:21:14.594Z,74.50
2019-04-05T01:23:44.314Z,72.50
2019-04-05T01:26:15.383Z,69.47
2019-04-05T01:28:46.786Z,75.63
2019-04-05T01:31:16.410Z,75.07
2019-04-05T01:33:45.923Z,77.13
2019-04-05T01:36:15.463Z,69.10
2019-04-05T01:38:44.885Z,74.23
2019-04-05T01:41:14.751Z,64.80
2019-04-05T01:43:45.401Z,74.57
2019-04-05T01:46:16.555Z,67.60
2019-04-05T01:48:48.779Z,73.97
2019-04-05T01:51:18.586Z,68.60
2019-04-05T01:53:48.266Z,77.83
2019-04-05T01:56:17.867Z,67.23
2019-04-05T01:58:47.307Z,74.50
2019-04-05T02:01:16.919Z,83.33
2019-04-05T02:03:46.516Z,78.10
2019-04-05T02:06:16.606Z,78.33
2019-04-05T02:08:46.472Z,81.53
2019-04-05T02:11:16.062Z,87.33
2019-04-05T02:13:45.642Z,84.10
2019-04-05T02:16:15.171Z,80.27
2019-04-05T02:18:44.616Z,90.60
2019-04-05T02:21:14.160Z,84.17
2019-04-05T02:23:43.755Z,91.50
2019-04-05T02:26:13.933Z,89.23
2019-04-05T02:28:43.452Z,83.03
2019-04-05T02:31:14.711Z,82.77
2019-04-05T02:33:44.477Z,97.33
2019-04-05T02:36:14.554Z,84.87
2019-04-05T02:38:45.803Z,85.50
2019-04-05T02:41:16.625Z,77.97
2019-04-05T02:43:47.546Z,79.43
2019-04-05T02:46:23.813Z,82.67
2019-04-05T02:48:50.342Z,82.43
2019-04-05T02:51:22.837Z,74.90
2019-04-05T02:53:57.044Z,72.43
2019-04-05T02:56:29.679Z,69.73
2019-04-05T02:59:00.026Z,68.77
2019-04-05T03:01:30.987Z,68.30
2019-04-05T03:04:00.964Z,67.70
2019-04-05T03:06:30.958Z,73.10
2019-04-05T03:09:01.155Z,68.13
2019-04-05T03:11:33.832Z,69.57
2019-04-05T03:14:04.170Z,71.30
2019-04-05T03:16:41.593Z,67.87
2019-04-05T03:19:16.408Z,76.63
2019-04-05T03:21:49.316Z,65.00
2019-04-05T03:24:23.432Z,71.17
2019-04-05T03:26:55.935Z,62.67
2019-04-05T03:29:25.784Z,68.23
2019-04-05T03:31:55.593Z,60.70
2019-04-05T03:34:25.562Z,67.20
2019-04-05T03:36:55.242Z,61.07
2019-04-05T03:39:25.306Z,69.03
2019-04-05T03:41:55.689Z,70.30
2019-04-05T03:44:27.985Z,61.90
2019-04-05T03:46:58.134Z,61.73
2019-04-05T03:49:30.785Z,62.23
2019-04-05T03:52:00.370Z,61.93
2019-04-05T03:54:30.726Z,62.43
2019-04-05T03:57:02.199Z,60.20
2019-04-05T03:59:35.692Z,61.90
2019-04-05T04:02:05.499Z,62.07
2019-04-05T04:04:36.554Z,61.20
2019-04-05T04:07:08.653Z,58.60
2019-04-05T04:09:39.843Z,56.03
2019-04-05T04:12:10.545Z,67.40
2019-04-05T04:14:40.330Z,58.70
2019-04-05T04:17:13.394Z,58.23
2019-04-05T04:19:45.333Z,63.23
2019-04-05T04:22:20.655Z,62.77
2019-04-05T04:24:50.255Z,59.83
2019-04-05T04:27:19.828Z,54.73
2019-04-05T04:29:49.552Z,62.40
2019-04-05T04:32:19.067Z,67.90
2019-04-05T04:34:48.770Z,60.90
2019-04-05T04:37:18.588Z,67.60
2019-04-05T04:39:51.710Z,56.73
2019-04-05T04:42:21.695Z,58.20
2019-04-05T04:44:51.491Z,61.73
2019-04-05T04:47:26.966Z,63.80
2019-04-05T04:49:54.855Z,65.60
2019-04-05T04:52:24.849Z,60.10
2019-04-05T04:54:54.398Z,67.83
2019-04-05T04:57:24.173Z,71.63
2019-04-05T04:59:53.882Z,71.40
2019-04-05T05:02:27.265Z,78.53
2019-04-05T05:04:56.800Z,69.53
2019-04-05T05:07:26.491Z,83.27
2019-04-05T05:09:56.119Z,83.93
2019-04-05T05:12:25.781Z,79.40
2019-04-05T05:14:55.583Z,85.43
2019-04-05T05:17:37.487Z,85.03
2019-04-05T05:19:59.263Z,77.53
2019-04-05T05:22:28.823Z,78.53
2019-04-05T05:24:58.977Z,78.20
2019-04-05T05:27:29.563Z,71.73
2019-04-05T05:29:59.453Z,67.83
2019-04-05T05:32:29.160Z,63.40
2019-04-05T05:35:02.207Z,72.90
2019-04-05T05:37:32.829Z,70.10
2019-04-05T05:40:01.614Z,68.60
2019-04-05T05:42:31.242Z,67.77
2019-04-05T05:45:02.364Z,63.87
2019-04-05T05:47:31.858Z,61.10
2019-04-05T05:50:02.908Z,67.03
2019-04-05T05:52:34.275Z,66.57
2019-04-05T05:55:07.872Z,70.70
2019-04-05T05:57:37.354Z,67.13
2019-04-05T06:00:09.274Z,72.30
2019-04-05T06:02:39.457Z,71.37
2019-04-05T06:05:11.687Z,62.87
2019-04-05T06:07:42.174Z,68.53
2019-04-05T06:10:11.755Z,70.27
2019-04-05T06:12:41.183Z,62.63
2019-04-05T06:15:11.629Z,69.87
2019-04-05T06:17:42.578Z,70.97
2019-04-05T06:20:12.434Z,73.00
2019-04-05T06:22:41.978Z,72.10
2019-04-05T06:25:12.626Z,73.80
2019-04-05T06:27:44.883Z,66.67
2019-04-05T06:30:14.373Z,70.50
2019-04-05T06:32:43.816Z,77.03
2019-04-05T06:35:13.388Z,67.77
2019-04-05T06:37:43.368Z,75.87
2019-04-05T06:40:13.030Z,73.30
2019-04-05T06:42:42.468Z,70.00
2019-04-05T06:45:12.128Z,67.17
2019-04-05T06:47:41.999Z,79.40
2019-04-05T06:50:11.619Z,74.10
2019-04-05T06:52:42.758Z,71.50
2019-04-05T06:55:12.537Z,74.60
2019-04-05T06:57:42.120Z,79.73
2019-04-05T07:00:11.987Z,82.93
2019-04-05T07:02:41.492Z,86.53
2019-04-05T07:05:11.050Z,83.77
2019-04-05T07:07:43.656Z,87.70
2019-04-05T07:10:13.308Z,81.57
2019-04-05T07:12:42.797Z,93.50
2019-04-05T07:15:12.999Z,92.47
2019-04-05T07:17:42.454Z,85.53
2019-04-05T07:20:12.019Z,98.07
2019-04-05T07:22:41.471Z,90.03
2019-04-05T07:25:10.980Z,92.53
2019-04-05T07:27:40.403Z,96.33
2019-04-05T07:30:10.099Z,100.23
2019-04-05T07:32:39.560Z,94.83
2019-04-05T07:35:09.140Z,101.93
2019-04-05T07:37:38.570Z,92.63
2019-04-05T07:40:09.202Z,96.93
2019-04-05T07:42:38.653Z,102.90
2019-04-05T07:45:08.551Z,95.93
2019-04-05T07:47:38.115Z,102.63
2019-04-05T07:50:09.743Z,98.63
2019-04-05T07:52:39.171Z,99.47
2019-04-05T07:55:09.271Z,115.43
2019-04-05T07:57:39.698Z,103.67
2019-04-05T08:00:21.849Z,105.50
2019-04-05T08:02:51.439Z,108.53
2019-04-05T08:05:20.935Z,104.70
2019-04-05T08:07:51.836Z,99.70
2019-04-05T08:10:22.977Z,102.80
2019-04-05T08:12:53.639Z,98.27
2019-04-05T08:15:23.201Z,108.00
2019-04-05T08:17:52.641Z,103.67
2019-04-05T08:20:25.093Z,103.37
2019-04-05T08:22:53.726Z,97.27
2019-04-05T08:25:23.232Z,104.43
2019-04-05T08:27:52.689Z,103.90
2019-04-05T08:30:22.116Z,110.93
2019-04-05T08:32:51.810Z,102.90
2019-04-05T08:35:21.308Z,108.97
2019-04-05T08:37:51.099Z,114.90
2019-04-05T08:40:21.063Z,103.60
2019-04-05T08:42:50.589Z,111.50
2019-04-05T08:45:20.150Z,116.70
2019-04-05T08:47:49.612Z,111.97
2019-04-05T08:50:21.491Z,109.37
2019-04-05T08:52:51.088Z,116.87
2019-04-05T08:55:21.450Z,107.63
2019-04-05T08:57:51.048Z,108.90
2019-04-05T09:00:20.806Z,115.60
2019-04-05T09:02:50.303Z,104.30
2019-04-05T09:05:19.941Z,110.73
2019-04-05T09:07:49.841Z,117.87
2019-04-05T09:10:19.273Z,104.90
2019-04-05T09:12:48.728Z,108.30
2019-04-05T09:15:18.254Z,119.53
2019-04-05T09:17:47.697Z,104.27
2019-04-05T09:20:17.144Z,105.73
2019-04-05T09:22:46.616Z,115.93
2019-04-05T09:25:16.051Z,108.17
2019-04-05T09:27:45.503Z,109.87
2019-04-05T09:30:15.276Z,110.87
2019-04-05T09:32:44.729Z,110.47
2019-04-05T09:35:14.297Z,114.93
2019-04-05T09:37:43.827Z,101.13
2019-04-05T09:40:13.327Z,103.27
2019-04-05T09:42:42.864Z,98.23
2019-04-05T09:45:12.374Z,109.63
2019-04-05T09:47:42.977Z,109.00
2019-04-05T09:50:12.966Z,107.80
2019-04-05T09:52:42.425Z,103.70
2019-04-05T09:55:12.002Z,112.63
2019-04-05T09:57:41.593Z,97.07
2019-04-05T10:00:15.485Z,102.63
2019-04-05T10:02:45.115Z,99.93
2019-04-05T10:05:14.744Z,95.77
2019-04-05T10:07:54.956Z,99.50
2019-04-05T10:10:17.177Z,91.60
2019-04-05T10:12:46.767Z,97.07
2019-04-05T10:15:16.507Z,90.53
2019-04-05T10:17:45.955Z,89.97
2019-04-05T10:20:16.305Z,88.87
2019-04-05T10:22:45.806Z,98.47
2019-04-05T10:25:15.569Z,101.50
2019-04-05T10:27:45.136Z,85.63
2019-04-05T10:30:15.403Z,86.90
2019-04-05T10:32:46.303Z,99.97
2019-04-05T10:35:16.022Z,84.53
2019-04-05T10:37:45.510Z,85.77
2019-04-05T10:40:15.524Z,91.03
2019-04-05T10:42:45.022Z,81.97
2019-04-05T10:45:14.726Z,106.13
2019-04-05T10:47:44.175Z,89.73
2019-04-05T10:50:14.764Z,83.97
2019-04-05T10:52:44.368Z,86.80
2019-04-05T10:55:15.042Z,79.73
2019-04-05T10:57:44.633Z,78.80
2019-04-05T11:00:17.179Z,76.73
2019-04-05T11:02:46.696Z,82.33
2019-04-05T11:05:16.287Z,87.43
2019-04-05T11:07:45.849Z,90.00
2019-04-05T11:10:17.914Z,87.10
2019-04-05T11:12:50.006Z,83.57
2019-04-05T11:15:20.158Z,79.23
2019-04-05T11:17:49.613Z,82.70
2019-04-05T11:20:21.551Z,78.07
2019-04-05T11:22:51.294Z,76.97
2019-04-05T11:25:21.329Z,71.57
2019-04-05T11:27:50.849Z,78.90
2019-04-05T11:30:41.117Z,69.40
2019-04-05T11:33:10.653Z,62.27
2019-04-05T11:35:41.392Z,68.53
2019-04-05T11:38:13.776Z,77.37
2019-04-05T11:40:44.337Z,81.87
2019-04-05T11:43:15.547Z,74.73
2019-04-05T11:45:46.205Z,76.47
2019-04-05T11:48:16.801Z,74.33
2019-04-05T11:50:46.303Z,72.53
2019-04-05T11:53:15.827Z,70.40
2019-04-05T11:55:46.781Z,63.40
2019-04-05T11:58:16.473Z,74.47
2019-04-05T12:00:53.647Z,66.50
2019-04-05T12:03:24.757Z,77.87
2019-04-05T12:05:54.329Z,74.90
2019-04-05T12:08:23.784Z,72.40
2019-04-05T12:10:53.386Z,83.90
2019-04-05T12:13:22.855Z,88.83
2019-04-05T12:15:52.412Z,77.93
2019-04-05T12:18:22.306Z,84.10
2019-04-05T12:20:59.949Z,73.83
2019-04-05T12:23:24.055Z,72.53
2019-04-05T12:25:54.717Z,73.03
2019-04-05T12:28:24.402Z,74.53
2019-04-05T12:30:53.911Z,73.07
2019-04-05T12:33:23.445Z,65.40
2019-04-05T12:35:56.302Z,75.40
2019-04-05T12:38:32.481Z,83.17
2019-04-05T12:41:05.959Z,67.17
2019-04-05T12:43:35.413Z,80.20
2019-04-05T12:46:05.895Z,82.80
2019-04-05T12:48:35.383Z,83.60
2019-04-05T12:51:05.690Z,96.07
2019-04-05T12:53:35.459Z,91.57
2019-04-05T12:56:05.498Z,85.47
2019-04-05T12:58:35.904Z,85.60
2019-04-05T13:01:08.152Z,90.83
2019-04-05T13:03:36.642Z,78.57
2019-04-05T13:06:06.164Z,88.10
2019-04-05T13:08:35.590Z,78.17
2019-04-05T13:11:05.242Z,78.17
2019-04-05T13:13:34.632Z,89.50
2019-04-05T13:16:04.320Z,94.20
2019-04-05T13:18:33.888Z,75.43
2019-04-05T13:21:14.555Z,81.63
2019-04-05T13:23:35.845Z,78.40
2019-04-05T13:26:06.078Z,80.53
2019-04-05T13:28:35.524Z,77.17
2019-04-05T13:31:05.054Z,84.53
2019-04-05T13:33:34.632Z,92.53
2019-04-05T13:36:04.207Z,77.20
2019-04-05T13:38:33.834Z,86.77
2019-04-05T13:41:03.673Z,86.57
2019-04-05T13:43:33.186Z,80.17
2019-04-05T13:46:02.949Z,79.07
2019-04-05T13:48:32.408Z,83.97
2019-04-05T13:51:01.897Z,81.90
2019-04-05T13:53:31.345Z,84.80
2019-04-05T13:56:01.339Z,79.57
2019-04-05T13:58:30.798Z,71.00
2019-04-05T14:01:00.301Z,87.97
2019-04-05T14:03:29.747Z,71.77
2019-04-05T14:05:59.271Z,74.03
2019-04-05T14:08:29.681Z,84.83
2019-04-05T14:10:59.138Z,75.07
2019-04-05T14:13:29.628Z,74.13
2019-04-05T14:15:59.091Z,76.00
2019-04-05T14:18:28.529Z,83.50
2019-04-05T14:20:59.624Z,74.30
2019-04-05T14:23:29.051Z,70.70
2019-04-05T14:25:59.805Z,79.23
2019-04-05T14:28:29.849Z,78.23
2019-04-05T14:31:02.234Z,70.93
2019-04-05T14:33:30.671Z,74.27
2019-04-05T14:36:00.191Z,69.53
2019-04-05T14:38:31.308Z,74.63
2019-04-05T14:41:00.960Z,77.07
2019-04-05T14:43:30.463Z,86.80
2019-04-05T14:46:02.768Z,85.07
2019-04-05T14:48:31.995Z,69.13
2019-04-05T14:51:01.544Z,67.93
2019-04-05T14:53:32.304Z,74.10
2019-04-05T14:56:02.345Z,68.97
2019-04-05T14:58:31.838Z,68.27
2019-04-05T15:01:01.359Z,72.83
2019-04-05T15:03:30.861Z,70.47
2019-04-05T15:06:00.315Z,78.33
2019-04-05T15:08:29.884Z,75.83
2019-04-05T15:10:59.425Z,73.20
2019-04-05T15:13:28.868Z,81.50
2019-04-05T15:15:58.398Z,68.93
2019-04-05T15:18:27.863Z,73.43
2019-04-05T15:20:57.358Z,86.10
2019-04-05T15:23:26.814Z,75.70
2019-04-05T15:25:56.338Z,78.87
2019-04-05T15:28:25.808Z,76.57
2019-04-05T15:30:56.178Z,71.63
2019-04-05T15:33:27.731Z,60.13
2019-04-05T15:36:00.186Z,78.67
2019-04-05T15:38:31.395Z,70.43
2019-04-05T15:40:59.741Z,70.37
2019-04-05T15:43:29.170Z,88.70
2019-04-05T15:45:58.714Z,83.60
2019-04-05T15:48:28.167Z,75.57
2019-04-05T15:50:59.338Z,85.37
2019-04-05T15:53:31.681Z,79.10
2019-04-05T15:56:03.896Z,75.50
2019-04-05T15:58:34.044Z,73.13
2019-04-05T16:01:05.074Z,74.23
2019-04-05T16:03:36.917Z,71.57
2019-04-05T16:06:06.104Z,76.30
2019-04-05T16:08:36.073Z,69.23
2019-04-05T16:11:05.758Z,74.17
2019-04-05T16:13:35.206Z,77.00
2019-04-05T16:16:05.182Z,83.07
2019-04-05T16:18:34.691Z,80.73
2019-04-05T16:21:04.299Z,81.93
2019-04-05T16:23:33.823Z,72.30
2019-04-05T16:26:04.016Z,80.87
2019-04-05T16:28:33.567Z,83.27
2019-04-05T16:31:03.065Z,85.97
2019-04-05T16:33:34.743Z,85.23
2019-04-05T16:36:04.387Z,88.33
2019-04-05T16:38:33.913Z,84.47
2019-04-05T16:41:03.422Z,88.33
2019-04-05T16:43:33.320Z,82.43
2019-04-05T16:46:02.776Z,79.10
2019-04-05T16:48:32.437Z,85.00
2019-04-05T16:51:02.147Z,92.47
2019-04-05T16:53:31.870Z,82.03
2019-04-05T16:56:01.359Z,76.70
2019-04-05T16:58:30.998Z,88.73
2019-04-05T17:01:00.487Z,76.67
2019-04-05T17:03:31.107Z,93.50
2019-04-05T17:06:00.557Z,77.43
2019-04-05T17:08:30.231Z,95.23
2019-04-05T17:10:59.676Z,84.23
2019-04-05T17:13:29.267Z,80.20
2019-04-05T17:15:58.788Z,88.07
2019-04-05T17:18:28.308Z,103.70
2019-04-05T17:20:57.738Z,87.87
2019-04-05T17:23:27.332Z,86.20
2019-04-05T17:25:56.866Z,93.80
2019-04-05T17:28:26.327Z,90.47
2019-04-05T17:30:55.765Z,97.43
2019-04-05T17:33:25.372Z,89.10
2019-04-05T17:35:55.982Z,89.70
2019-04-05T17:38:28.472Z,99.80
2019-04-05T17:40:57.992Z,107.43
2019-04-05T17:43:27.672Z,101.43
2019-04-05T17:45:57.208Z,86.80
2019-04-05T17:48:26.773Z,94.53
2019-04-05T17:50:56.572Z,100.80
2019-04-05T17:53:26.089Z,96.73
2019-04-05T17:55:58.851Z,106.10
2019-04-05T17:58:28.400Z,102.40
2019-04-05T18:01:00.597Z,101.73
2019-04-05T18:03:30.169Z,99.40
2019-04-05T18:05:59.688Z,109.57
2019-04-05T18:08:29.191Z,98.07
2019-04-05T18:10:58.723Z,94.50
2019-04-05T18:13:28.278Z,100.00
2019-04-05T18:15:57.716Z,109.27
2019-04-05T18:18:27.166Z,107.53
2019-04-05T18:20:56.753Z,113.73
2019-04-05T18:23:26.189Z,108.03
2019-04-05T18:25:55.713Z,115.53
2019-04-05T18:28:25.135Z,114.67
2019-04-05T18:30:55.746Z,105.77
2019-04-05T18:33:25.182Z,106.77
2019-04-05T18:35:54.619Z,90.23
2019-04-05T18:38:24.052Z,107.07
2019-04-05T18:40:53.872Z,107.93
2019-04-05T18:43:23.420Z,103.80
2019-04-05T18:45:53.007Z,104.83
2019-04-05T18:48:25.292Z,94.97
2019-04-05T18:50:56.357Z,101.97
2019-04-05T18:53:37.018Z,110.30
2019-04-05T18:55:58.031Z,103.70
2019-04-05T18:58:27.501Z,100.87
2019-04-05T19:00:57.061Z,105.23
2019-04-05T19:03:26.605Z,94.00
2019-04-05T19:05:56.026Z,109.90
2019-04-05T19:08:25.530Z,103.30
2019-04-05T19:10:55.067Z,109.07
2019-04-05T19:13:24.601Z,119.37
2019-04-05T19:15:54.195Z,112.10
2019-04-05T19:18:23.831Z,125.27
2019-04-05T19:20:53.454Z,121.73
2019-04-05T19:23:23.240Z,106.80
2019-04-05T19:25:52.789Z,119.57
2019-04-05T19:28:22.210Z,108.10
2019-04-05T19:48:36.007Z,114.30
2019-04-05T19:51:05.737Z,107.20
2019-04-05T19:53:35.198Z,114.17
2019-04-05T19:56:04.845Z,110.23
2019-04-05T19:58:34.309Z,123.20
2019-04-05T20:01:03.807Z,108.80
2019-04-05T20:03:33.347Z,116.80
2019-04-05T20:06:02.805Z,115.83
2019-04-05T20:08:32.346Z,104.80
2019-04-05T20:11:02.842Z,102.40
2019-04-05T20:13:33.478Z,111.67
2019-04-05T20:16:06.194Z,106.33
2019-04-05T20:18:35.750Z,105.07
2019-04-05T20:21:05.487Z,98.80
2019-04-05T20:23:34.943Z,77.40
2019-04-05T20:26:04.454Z,94.80
2019-04-05T20:28:34.058Z,103.03
2019-04-05T20:31:06.806Z,118.80
2019-04-05T20:33:36.262Z,87.00
2019-04-05T20:36:05.781Z,84.40
2019-04-05T20:38:38.196Z,88.53
2019-04-05T20:41:06.786Z,102.57
2019-04-05T20:43:39.648Z,82.50
2019-04-05T20:46:09.311Z,94.50
2019-04-05T20:48:38.841Z,86.63
2019-04-05T20:51:08.272Z,88.83
2019-04-05T20:53:37.807Z,71.57
2019-04-05T20:56:10.255Z,76.53
2019-04-05T20:58:39.749Z,83.10
2019-04-05T21:01:12.282Z,83.00
2019-04-05T21:03:42.436Z,78.20
2019-04-05T21:06:13.484Z,84.20
2019-04-05T21:08:43.375Z,78.50
2019-04-05T21:11:12.840Z,86.20
2019-04-05T21:13:42.360Z,101.63
2019-04-05T21:16:12.161Z,90.17
2019-04-05T21:18:44.345Z,94.60
2019-04-05T21:21:13.826Z,78.40
2019-04-05T21:23:46.432Z,68.23
2019-04-05T21:26:15.925Z,40.40
2019-04-05T21:28:47.087Z,35.43
2019-04-05T21:31:16.560Z,38.57
2019-04-05T21:33:46.031Z,59.43
2019-04-05T21:36:15.507Z,76.67
2019-04-05T21:38:45.012Z,76.30
2019-04-05T21:41:17.395Z,66.27
2019-04-05T21:43:47.318Z,71.23
2019-04-05T21:46:18.301Z,76.97
2019-04-05T21:48:47.755Z,99.23
2019-04-05T21:51:18.298Z,99.53
2019-04-05T21:53:47.738Z,82.60
2019-04-05T21:56:17.791Z,90.43
2019-04-05T21:58:50.263Z,79.73
2019-04-05T22:01:24.416Z,78.90
2019-04-05T22:03:56.968Z,72.53
2019-04-05T22:06:27.966Z,82.37
2019-04-05T22:08:57.743Z,90.23
2019-04-05T22:11:27.866Z,93.57
2019-04-05T22:13:58.051Z,87.10
2019-04-05T22:16:27.506Z,81.83
2019-04-05T22:18:56.989Z,85.23
2019-04-05T22:21:26.444Z,92.50
2019-04-05T22:23:56.366Z,85.10
2019-04-05T22:26:29.777Z,100.50
2019-04-05T22:28:58.499Z,105.67
2019-04-05T22:31:28.233Z,107.23
2019-04-05T22:33:58.050Z,101.73
2019-04-05T22:36:27.510Z,116.43
2019-04-05T22:38:58.701Z,121.90
2019-04-05T22:41:28.217Z,97.73
2019-04-05T22:43:57.707Z,102.30
2019-04-05T22:46:28.662Z,96.37
2019-04-05T22:48:58.149Z,103.23
2019-04-05T22:51:27.734Z,81.90
2019-04-05T22:53:58.254Z,104.10
2019-04-05T22:56:27.645Z,97.73
2019-04-05T22:58:57.134Z,98.00
2019-04-05T23:01:26.738Z,114.27
2019-04-05T23:03:56.186Z,108.43
2019-04-05T23:06:25.663Z,101.73
2019-04-05T23:08:56.754Z,90.43
2019-04-05T23:11:26.226Z,103.77
2019-04-05T23:13:55.672Z,96.27
2019-04-05T23:16:25.146Z,96.00
2019-04-05T23:18:54.632Z,92.67
2019-04-05T23:21:24.789Z,82.50
2019-04-05T23:23:54.314Z,105.53
2019-04-05T23:26:23.845Z,89.33
2019-04-05T23:28:53.380Z,86.67
2019-04-05T23:31:22.868Z,80.00
2019-04-05T23:33:52.323Z,90.20
2019-04-05T23:36:21.761Z,82.53
2019-04-05T23:38:51.231Z,77.87
2019-04-05T23:41:20.690Z,76.90
2019-04-05T23:43:50.168Z,79.67
2019-04-05T23:46:19.608Z,76.60
2019-04-05T23:48:49.088Z,79.80
2019-04-05T23:51:18.577Z,78.80
2019-04-05T23:53:49.135Z,82.13
2019-04-05T23:56:19.661Z,77.40
2019-04-05T23:58:49.185Z,70.73
